Time;durP1;ratioP1;P1;durP2;ratioP2;P2;SDS_P1;SDS_P2;PMS_P1;PMS_P2;Temp;Humidity;BMP_temperature;BMP_pressure;BME280_temperature;BME280_humidity;BME280_pressure;Samples;Min_cycle;Max_cycle;Signal;HPM_P1;HPM_P2
2022/04/21 00:00:54;;;;;;;4.53;3.33;;;;;;;12.36;48.96;99821.56;10247530;28;20546;-65
2022/04/21 00:05:56;;;;;;;3.83;3.53;;;;;;;11.91;48.08;99795.53;10235402;28;20047;-65
2022/04/21 00:10:57;;;;;;;3.65;3.35;;;;;;;11.95;51.92;99796.94;10231201;28;20761;-64
2022/04/21 00:15:59;;;;;;;4.20;3.70;;;;;;;12.07;49.34;99789.63;10231648;28;20537;-64
2022/04/21 00:21:01;;;;;;;4.53;3.55;;;;;;;12.03;49.77;99795.25;10230258;28;20142;-64
2022/04/21 00:26:04;;;;;;;5.05;3.90;;;;;;;11.98;49.64;99776.19;10234741;28;20518;-64
2022/04/21 00:31:05;;;;;;;4.35;3.30;;;;;;;11.99;50.00;99787.69;10251748;28;20046;-65
2022/04/21 00:36:07;;;;;;;6.28;3.67;;;;;;;12.03;49.58;99800.59;10235837;28;20141;-65
2022/04/21 00:41:08;;;;;;;4.45;3.20;;;;;;;11.99;49.78;99788.53;10236100;28;20525;-64
2022/04/21 00:46:19;;;;;;;4.03;3.33;;;;;;;11.96;50.50;99782.63;10232577;28;20542;-65
2022/04/21 00:51:22;;;;;;;3.40;2.60;;;;;;;11.86;50.59;99790.66;10230638;28;20054;-64
2022/04/21 00:56:25;;;;;;;4.73;3.37;;;;;;;11.92;50.35;99784.72;10232861;28;20060;-64
2022/04/21 01:06:50;;;;;;;3.83;3.38;;;;;;;11.82;50.18;99776.72;10232198;28;20524;-65
2022/04/21 01:11:51;;;;;;;3.93;3.53;;;;;;;11.79;50.36;99770.88;10230316;28;20055;-64
2022/04/21 01:16:53;;;;;;;4.05;3.65;;;;;;;11.79;49.61;99776.19;10231109;28;20198;-64
2022/04/21 01:21:54;;;;;;;4.00;3.55;;;;;;;11.61;50.32;99752.09;10227261;28;20061;-65
2022/04/21 01:26:57;;;;;;;5.18;3.42;;;;;;;11.66;50.95;99773.81;10229352;28;20051;-65
2022/04/21 01:31:59;;;;;;;4.28;3.88;;;;;;;11.63;51.59;99758.97;10229501;28;20138;-65
2022/04/21 01:42:20;;;;;;;4.60;3.78;;;;;;;11.54;50.89;99742.97;10227468;28;20055;-65
2022/04/21 01:47:22;;;;;;;4.75;3.90;;;;;;;11.57;51.50;99748.84;10235813;28;20170;-64
2022/04/21 01:52:23;;;;;;;4.43;3.83;;;;;;;11.47;51.87;99732.06;10227612;28;20043;-64
2022/04/21 01:57:25;;;;;;;4.15;3.75;;;;;;;11.59;52.88;99736.22;10227570;28;20086;-64
2022/04/21 02:02:26;;;;;;;4.28;3.88;;;;;;;11.63;52.01;99734.13;10243230;28;20070;-64
2022/04/21 02:07:28;;;;;;;5.10;4.47;;;;;;;11.46;51.80;99714.38;10241912;28;20506;-64
2022/04/21 02:12:29;;;;;;;5.80;4.25;;;;;;;11.49;52.62;99728.25;10244477;28;20066;-64
2022/04/21 02:17:32;;;;;;;7.55;4.13;;;;;;;11.44;52.71;99706.53;10242059;28;20905;-64
2022/04/21 02:22:35;;;;;;;4.35;3.28;;;;;;;11.53;52.46;99720.81;10238792;28;20046;-64
2022/04/21 02:27:39;;;;;;;5.05;3.85;;;;;;;11.45;51.43;99720.66;10243857;28;20062;-64
2022/04/21 02:32:41;;;;;;;;;;;;;;;11.42;52.63;99718.28;10243948;28;21177;-64
2022/04/21 02:37:44;;;;;;;4.65;4.07;;;;;;;11.32;52.55;99713.81;10243515;28;20416;-64
2022/04/21 02:42:46;;;;;;;4.80;3.67;;;;;;;11.35;52.75;99715.38;10242842;28;20157;-64
2022/04/21 02:47:48;;;;;;;4.07;3.50;;;;;;;11.19;52.16;99702.59;10248827;28;20145;-64
2022/04/21 02:52:49;;;;;;;6.03;4.22;;;;;;;11.12;52.92;99696.16;10241612;28;20049;-64
2022/04/21 02:57:52;;;;;;;3.92;3.50;;;;;;;11.22;52.85;99709.47;10242988;28;20050;-64
2022/04/21 03:02:54;;;;;;;4.88;4.28;;;;;;;11.12;53.20;99706.81;10237688;28;20146;-64
2022/04/21 03:07:55;;;;;;;4.20;3.63;;;;;;;11.15;52.93;99714.50;10240148;28;20051;-65
2022/04/21 03:12:58;;;;;;;4.63;4.22;;;;;;;11.03;53.63;99697.84;10246866;28;20490;-66
2022/04/21 03:17:59;;;;;;;4.38;3.58;;;;;;;11.13;52.77;99717.31;10233525;28;20121;-65
2022/04/21 03:28:21;;;;;;;5.63;4.32;;;;;;;11.11;54.06;99718.47;10235137;28;20046;-65
2022/04/21 03:33:24;;;;;;;5.50;4.20;;;;;;;11.02;53.88;99716.63;10238398;28;20051;-64
2022/04/21 03:38:26;;;;;;;5.00;4.35;;;;;;;10.88;53.13;99689.41;10238103;28;20051;-65
2022/04/21 03:43:27;;;;;;;7.15;4.60;;;;;;;10.95;53.47;99695.88;10234115;28;20497;-65
2022/04/21 03:48:29;;;;;;;4.63;4.03;;;;;;;10.92;53.03;99704.13;10235772;28;20043;-64
2022/04/21 03:53:31;;;;;;;5.53;3.90;;;;;;;11.02;54.25;99720.13;10232870;28;20073;-64
2022/04/21 03:58:33;;;;;;;5.10;4.50;;;;;;;11.07;53.59;99709.91;10239027;28;20059;-64
2022/04/21 04:03:34;;;;;;;5.28;4.53;;;;;;;11.10;53.30;99706.13;10236443;28;20278;-64
2022/04/21 04:13:56;;;;;;;5.07;4.05;;;;;;;11.20;53.72;99701.63;10227653;28;20149;-64
2022/04/21 04:18:57;;;;;;;7.38;4.53;;;;;;;11.12;54.26;99702.34;10234328;28;20063;-65
2022/04/21 04:23:59;;;;;;;4.45;4.05;;;;;;;11.21;53.46;99713.13;10236147;28;20058;-66
2022/04/21 04:29:02;;;;;;;4.90;4.35;;;;;;;11.11;53.51;99715.81;10225845;28;20051;-64
2022/04/21 04:34:04;;;;;;;4.75;4.35;;;;;;;11.04;53.96;99709.34;10227992;28;20057;-65
2022/04/21 04:39:05;;;;;;;5.93;5.32;;;;;;;10.94;54.24;99715.50;10231866;28;20074;-66
2022/04/21 04:44:08;;;;;;;5.25;4.75;;;;;;;10.91;54.38;99707.81;10229636;28;20162;-64
2022/04/21 04:49:11;;;;;;;4.95;4.43;;;;;;;10.88;54.75;99705.38;10232349;28;20138;-65
2022/04/21 04:54:14;;;;;;;6.13;4.55;;;;;;;10.79;53.72;99708.88;10227885;28;20054;-65
2022/04/21 04:59:15;;;;;;;5.32;4.00;;;;;;;10.81;54.14;99712.28;10215493;28;20057;-65
2022/04/21 05:04:19;;;;;;;5.32;4.75;;;;;;;10.78;54.38;99708.06;10212480;28;20059;-64
2022/04/21 05:09:22;;;;;;;5.53;4.75;;;;;;;10.71;54.49;99709.59;10221211;28;20472;-65
2022/04/21 05:14:25;;;;;;;5.32;4.05;;;;;;;10.80;53.49;99707.91;10212475;28;20063;-65
2022/04/21 05:19:26;;;;;;;6.28;4.70;;;;;;;10.78;54.10;99700.06;10207153;28;20050;-65
2022/04/21 05:24:30;;;;;;;4.57;4.18;;;;;;;10.81;55.64;99714.94;10215727;28;20057;-65
2022/04/21 05:34:52;;;;;;;7.15;4.88;;;;;;;10.91;53.29;99697.16;10214743;28;20413;-67
2022/04/21 05:39:53;;;;;;;4.13;3.80;;;;;;;10.92;54.06;99709.47;10211320;28;20051;-67
2022/04/21 05:44:55;;;;;;;4.60;4.10;;;;;;;10.67;53.66;99699.34;10212892;28;20556;-66
2022/04/21 05:49:56;;;;;;;5.43;4.00;;;;;;;10.86;54.12;99701.22;10215848;28;20055;-66
2022/04/21 05:54:58;;;;;;;5.32;4.82;;;;;;;10.93;53.71;99695.19;10218217;28;20051;-66
2022/04/21 05:59:59;;;;;;;4.78;4.28;;;;;;;11.23;53.80;99701.34;10212685;28;20047;-66
2022/04/21 06:05:01;;;;;;;4.45;3.78;;;;;;;11.40;52.66;99713.09;10216221;28;20051;-66
2022/04/21 06:10:02;;;;;;;5.85;3.90;;;;;;;11.53;54.33;99686.16;10215406;28;20074;-65
2022/04/21 06:15:04;;;;;;;4.63;4.22;;;;;;;12.02;51.25;99708.22;10216449;28;20050;-68
2022/04/21 06:20:06;;;;;;;4.25;3.85;;;;;;;12.15;51.64;99712.38;10236191;28;20125;-65
2022/04/21 06:25:08;;;;;;;5.85;4.18;;;;;;;12.06;50.49;99694.59;10220775;28;20549;-66
2022/04/21 06:30:10;;;;;;;6.22;3.60;;;;;;;12.15;50.81;99694.53;10220639;28;20059;-64
2022/04/21 06:35:12;;;;;;;5.60;4.20;;;;;;;12.13;50.23;99709.88;10216635;28;20065;-65
2022/04/21 06:40:14;;;;;;;6.68;3.65;;;;;;;11.87;51.98;99693.63;10209810;28;20061;-63
2022/04/21 06:50:38;;;;;;;5.68;4.38;;;;;;;12.08;51.49;99689.94;10217320;28;20057;-64
2022/04/21 06:55:40;;;;;;;5.83;4.47;;;;;;;12.28;50.51;99691.53;10221375;28;20059;-64
2022/04/21 07:00:41;;;;;;;5.18;4.65;;;;;;;12.28;50.44;99706.69;10249411;28;20046;-67
2022/04/21 07:05:44;;;;;;;4.03;3.38;;;;;;;12.33;51.10;99702.59;10224232;28;20681;-64
2022/04/21 07:10:46;;;;;;;4.18;3.60;;;;;;;12.48;50.85;99704.78;10230410;28;20072;-63
2022/04/21 07:15:47;;;;;;;4.55;4.10;;;;;;;12.62;50.20;99703.44;10224014;28;20520;-64
2022/04/21 07:20:48;;;;;;;4.63;4.10;;;;;;;12.56;50.07;99718.22;10220956;28;20053;-64
2022/04/21 07:25:50;;;;;;;4.07;3.67;;;;;;;12.58;50.16;99718.91;10237017;28;20046;-65
2022/04/21 07:30:51;;;;;;;4.43;3.80;;;;;;;12.57;50.94;99709.22;10226778;28;20057;-63
2022/04/21 07:35:53;;;;;;;6.68;3.58;;;;;;;12.61;50.69;99715.94;10226713;28;20168;-64
2022/04/21 07:40:56;;;;;;;5.90;3.90;;;;;;;12.68;50.46;99717.00;10228242;28;20051;-64
2022/04/21 07:45:57;;;;;;;5.68;3.78;;;;;;;12.64;50.75;99702.28;10215907;28;20185;-64
2022/04/21 07:50:58;;;;;;;4.20;3.20;;;;;;;12.66;50.53;99688.78;10234739;28;20912;-64
2022/04/21 07:56:00;;;;;;;5.05;4.13;;;;;;;12.79;50.65;99705.28;10220429;28;20058;-63
2022/04/21 08:01:01;;;;;;;6.30;3.85;;;;;;;12.87;50.77;99709.88;10215489;28;20047;-63
2022/04/21 08:06:05;;;;;;;7.32;4.25;;;;;;;12.95;50.44;99698.41;10216839;28;20063;-64
2022/04/21 08:11:07;;;;;;;4.57;4.18;;;;;;;12.91;50.48;99687.22;10222958;28;20055;-63
2022/04/21 08:16:09;;;;;;;5.63;3.53;;;;;;;12.94;49.93;99686.91;10223032;28;20167;-63
2022/04/21 08:21:11;;;;;;;4.50;3.85;;;;;;;12.88;51.29;99692.84;10226219;28;20074;-63
2022/04/21 08:37:13;;;;;;;5.18;3.75;;;;;;;13.29;48.49;99679.84;10219390;28;20160;-63
2022/04/21 08:42:15;;;;;;;3.95;3.50;;;;;;;13.72;47.55;99686.19;10218929;28;20051;-64
2022/04/21 08:47:19;;;;;;;5.47;3.58;;;;;;;13.90;46.49;99670.09;10217711;28;20050;-63
2022/04/21 08:52:22;;;;;;;3.60;3.30;;;;;;;14.35;45.21;99653.88;10222469;28;20050;-63
2022/04/21 08:57:23;;;;;;;5.72;3.10;;;;;;;14.99;44.46;99668.41;10218146;28;20084;-64
2022/04/21 09:02:39;;;;;;;3.85;3.38;;;;;;;16.14;42.73;99677.31;10219863;28;20065;-64
2022/04/21 09:07:45;;;;;;;4.68;3.28;;;;;;;16.44;41.07;99673.00;10220170;28;20053;-64
2022/04/21 09:13:07;;;;;;;3.75;2.88;;;;;;;16.35;41.23;99664.16;10218848;28;20054;-65
2022/04/21 09:18:13;;;;;;;2.97;2.67;;;;;;;16.67;40.44;99646.16;10217067;28;20498;-64
2022/04/21 09:23:14;;;;;;;3.83;3.28;;;;;;;17.17;40.12;99664.66;10245089;28;20065;-64
2022/04/21 09:28:29;;;;;;;3.50;3.00;;;;;;;17.45;38.71;99662.22;10213997;28;20051;-64
2022/04/21 09:33:40;;;;;;;6.28;3.17;;;;;;;17.85;38.54;99649.38;10215477;28;20101;-63
2022/04/21 09:38:41;;;;;;;3.47;2.88;;;;;;;17.78;37.83;99626.91;10215289;28;20140;-64
2022/04/21 09:43:43;;;;;;;4.22;3.40;;;;;;;18.49;37.54;99629.88;10221302;28;20050;-67
2022/04/21 09:48:46;;;;;;;5.75;3.22;;;;;;;18.77;36.62;99649.88;10219894;28;20054;-64
2022/04/21 09:53:52;;;;;;;5.22;3.05;;;;;;;19.21;35.64;99644.28;10215631;28;20059;-65
2022/04/21 09:58:54;;;;;;;3.40;3.05;;;;;;;19.65;35.26;99642.34;10218850;28;20062;-65
2022/04/21 10:03:56;;;;;;;3.83;2.92;;;;;;;20.10;33.77;99628.47;10221066;28;20499;-64
2022/04/21 10:08:58;;;;;;;4.60;3.10;;;;;;;20.53;33.57;99608.47;10226007;28;20057;-64
2022/04/21 10:14:00;;;;;;;4.07;2.90;;;;;;;21.17;31.06;99615.25;10230430;28;20143;-63
2022/04/21 10:19:03;;;;;;;3.85;2.97;;;;;;;21.13;32.01;99600.47;10220118;28;20085;-65
2022/04/21 10:24:05;;;;;;;9.00;3.95;;;;;;;23.56;28.15;99608.06;10220636;28;20105;-64
2022/04/21 10:29:27;;;;;;;4.18;2.60;;;;;;;27.22;22.63;99601.94;10249618;28;20106;-65
2022/04/21 10:34:46;;;;;;;3.03;2.20;;;;;;;26.53;22.71;99592.03;10230014;28;20053;-63
2022/04/21 10:40:10;;;;;;;4.50;2.35;;;;;;;24.37;25.97;99588.94;10229710;28;20057;-64
2022/04/21 10:45:12;;;;;;;4.35;2.60;;;;;;;23.63;26.59;99579.78;10221880;28;20058;-66
2022/04/21 10:50:16;;;;;;;3.65;2.45;;;;;;;25.88;24.24;99568.63;10252914;28;20055;-66
2022/04/21 11:00:39;;;;;;;2.73;2.50;;;;;;;31.92;17.38;99557.88;10229583;28;20054;-64
2022/04/21 11:05:41;;;;;;;4.00;2.53;;;;;;;32.52;17.05;99537.69;10227363;28;21482;-65
2022/04/21 11:10:43;;;;;;;2.53;2.10;;;;;;;33.51;17.19;99539.31;10245439;28;20164;-66
2022/04/21 11:15:46;;;;;;;2.42;2.22;;;;;;;30.43;18.41;99547.03;10226044;28;20109;-64
2022/04/21 11:20:50;;;;;;;4.18;2.67;;;;;;;25.99;23.49;99537.81;10226838;28;20097;-65
2022/04/21 11:25:52;;;;;;;3.78;2.10;;;;;;;28.56;21.14;99538.81;10227165;28;20066;-65
2022/04/21 11:30:58;;;;;;;2.60;2.38;;;;;;;27.37;21.75;99532.22;10226905;28;20649;-65
2022/04/21 11:36:04;;;;;;;3.85;2.70;;;;;;;29.44;19.58;99525.84;10226085;28;20118;-64
2022/04/21 11:41:10;;;;;;;2.85;2.58;;;;;;;26.78;22.54;99517.97;10220736;28;20054;-64
2022/04/21 11:46:12;;;;;;;2.67;2.13;;;;;;;24.53;25.32;99518.41;10224719;28;20141;-63
2022/04/21 11:51:27;;;;;;;3.03;2.08;;;;;;;28.23;22.09;99500.75;10219672;28;20149;-64
2022/04/21 11:56:29;;;;;;;2.05;1.85;;;;;;;27.97;20.82;99495.00;10219826;28;20078;-63
2022/04/21 12:06:53;;;;;;;3.25;1.50;;;;;;;27.14;22.08;99493.94;10221877;28;20051;-63
2022/04/21 12:11:57;;;;;;;2.13;1.92;;;;;;;26.27;24.08;99487.03;10217883;28;20046;-64
2022/04/21 12:17:03;;;;;;;2.95;1.92;;;;;;;25.61;24.43;99481.13;10220285;28;20053;-65
2022/04/21 12:22:13;;;;;;;5.32;2.25;;;;;;;24.64;25.69;99481.41;10219631;28;20051;-64
2022/04/21 12:27:22;;;;;;;3.90;1.98;;;;;;;24.95;26.45;99479.44;10221686;28;20086;-64
2022/04/21 12:32:35;;;;;;;2.22;1.92;;;;;;;25.36;25.12;99472.19;10216677;28;20043;-64
2022/04/21 12:37:39;;;;;;;3.95;1.75;;;;;;;25.38;25.05;99464.59;10218783;28;20109;-64
2022/04/21 12:42:41;;;;;;;2.22;1.80;;;;;;;25.12;25.26;99455.03;10220014;28;20791;-64
2022/04/21 12:47:44;;;;;;;2.33;1.90;;;;;;;24.51;25.83;99448.97;10218212;28;20055;-63
2022/04/21 12:52:47;;;;;;;3.30;1.48;;;;;;;23.81;27.32;99428.69;10219835;28;20961;-63
2022/04/21 12:58:09;;;;;;;4.07;2.10;;;;;;;22.94;28.23;99414.25;10218974;28;20061;-65
2022/04/21 13:03:14;;;;;;;4.43;1.75;;;;;;;23.02;28.51;99398.72;10215998;28;20129;-64
2022/04/21 13:08:16;;;;;;;3.58;2.03;;;;;;;23.33;27.64;99395.03;10213868;28;20051;-64
2022/04/21 13:13:17;;;;;;;3.08;1.75;;;;;;;23.57;27.03;99395.97;10214200;28;20363;-65
2022/04/21 13:18:19;;;;;;;3.15;1.65;;;;;;;23.57;27.43;99386.97;10216106;28;20093;-66
2022/04/21 13:23:23;;;;;;;5.05;2.30;;;;;;;23.18;28.28;99389.16;10219010;28;20057;-66
2022/04/21 13:28:25;;;;;;;3.25;2.03;;;;;;;23.02;28.46;99375.13;10215400;28;20829;-63
2022/04/21 13:33:30;;;;;;;3.35;1.80;;;;;;;22.68;28.63;99368.38;10214168;28;20058;-63
2022/04/21 13:38:32;;;;;;;2.30;2.10;;;;;;;22.58;29.19;99367.03;10214738;28;20061;-63
2022/04/21 13:43:33;;;;;;;6.07;1.75;;;;;;;22.82;28.91;99361.78;10212054;28;20050;-63
2022/04/21 13:48:56;;;;;;;3.53;1.73;;;;;;;22.88;28.30;99355.44;10212926;28;20043;-63
2022/04/21 13:53:58;;;;;;;4.38;1.90;;;;;;;22.56;28.78;99361.00;10215062;28;20378;-63
2022/04/21 13:58:59;;;;;;;2.80;2.13;;;;;;;22.39;28.84;99351.78;10216737;28;20058;-62
2022/04/21 14:04:01;;;;;;;1.88;1.17;;;;;;;22.25;29.06;99341.03;10214973;28;20070;-62
2022/04/21 14:09:06;;;;;;;3.63;1.10;;;;;;;21.72;28.97;99338.72;10214528;28;20085;-63
2022/04/21 14:14:07;;;;;;;2.60;1.48;;;;;;;21.15;30.26;99346.72;10213590;28;20047;-64
2022/04/21 14:19:08;;;;;;;2.10;1.38;;;;;;;20.48;31.31;99355.00;10219701;28;21130;-62
2022/04/21 14:24:10;;;;;;;3.15;1.67;;;;;;;20.39;31.48;99353.56;10233224;28;20045;-62
2022/04/21 14:29:11;;;;;;;4.15;2.13;;;;;;;20.35;31.99;99347.72;10227638;28;20166;-63
2022/04/21 14:34:12;;;;;;;4.53;2.33;;;;;;;19.96;32.65;99338.59;10227202;28;20503;-63
2022/04/21 14:44:36;;;;;;;5.72;2.38;;;;;;;19.76;34.09;99336.69;10225271;28;20049;-62
2022/04/21 14:49:39;;;;;;;5.20;2.08;;;;;;;19.69;33.83;99338.53;10219963;28;20051;-63
2022/04/21 14:54:41;;;;;;;3.85;1.98;;;;;;;19.39;34.69;99344.28;10224667;28;20059;-63
2022/04/21 14:59:42;;;;;;;5.43;2.13;;;;;;;19.20;35.26;99340.50;10223357;28;20050;-63
2022/04/21 15:04:43;;;;;;;5.63;1.75;;;;;;;19.03;35.78;99334.59;10228019;28;20169;-62
2022/04/21 15:09:44;;;;;;;2.38;1.80;;;;;;;18.93;36.45;99353.03;10221983;28;20043;-63
2022/04/21 15:14:46;;;;;;;3.00;2.33;;;;;;;18.78;36.37;99336.13;10236378;28;20761;-63
2022/04/21 15:19:48;;;;;;;2.90;1.77;;;;;;;18.70;36.94;99346.03;10232187;28;20546;-64
2022/04/21 15:24:52;;;;;;;4.88;1.95;;;;;;;18.73;36.92;99342.97;10229261;28;20138;-64
2022/04/21 15:29:54;;;;;;;3.28;2.65;;;;;;;18.59;37.42;99349.28;10231945;28;20059;-63
2022/04/21 15:34:55;;;;;;;3.08;2.28;;;;;;;18.35;37.83;99354.09;10230820;28;20046;-63
2022/04/21 15:40:01;;;;;;;3.03;2.42;;;;;;;18.20;37.82;99334.50;10225669;28;20154;-64
2022/04/21 15:45:03;;;;;;;4.78;2.67;;;;;;;18.29;38.81;99343.28;10235699;28;20055;-64
2022/04/21 15:50:05;;;;;;;4.72;3.08;;;;;;;18.37;38.54;99341.28;10239500;28;20047;-64
2022/04/21 16:00:36;;;;;;;8.45;2.65;;;;;;;18.28;39.31;99350.50;10231318;28;20198;-63
2022/04/21 16:05:37;;;;;;;4.20;3.13;;;;;;;18.27;39.43;99334.56;10231435;28;20086;-64
2022/04/21 16:10:39;;;;;;;3.90;3.15;;;;;;;18.26;39.04;99338.28;10232560;28;20092;-62
2022/04/21 16:15:41;;;;;;;5.45;3.03;;;;;;;18.23;38.96;99339.50;10235115;28;20136;-63
2022/04/21 16:20:43;;;;;;;7.30;3.42;;;;;;;18.22;39.34;99326.25;10236943;28;20129;-63
2022/04/21 16:25:45;;;;;;;4.72;3.08;;;;;;;18.18;40.16;99341.97;10232356;28;20057;-63
2022/04/21 16:30:46;;;;;;;5.28;3.88;;;;;;;18.08;40.05;99344.16;10230256;28;20169;-64
2022/04/21 16:35:47;;;;;;;3.53;3.05;;;;;;;17.82;40.63;99342.88;10234737;28;20138;-64
2022/04/21 16:40:49;;;;;;;4.32;3.53;;;;;;;17.88;40.68;99342.09;10236435;28;20141;-64
2022/04/21 16:45:51;;;;;;;3.85;3.28;;;;;;;17.81;40.58;99330.44;10238942;28;20178;-63
2022/04/21 16:50:52;;;;;;;7.03;3.85;;;;;;;17.77;40.95;99329.97;10232259;28;20053;-64
2022/04/21 16:55:54;;;;;;;7.65;4.05;;;;;;;17.72;40.94;99336.97;10230472;28;20049;-64
2022/04/21 17:06:16;;;;;;;5.63;3.72;;;;;;;17.48;41.90;99349.78;10229054;28;20054;-63
2022/04/21 17:11:17;;;;;;;4.50;3.30;;;;;;;17.23;42.18;99333.97;10229045;28;20055;-63
2022/04/21 17:16:19;;;;;;;7.55;4.20;;;;;;;17.33;42.34;99349.00;10228907;28;20517;-63
2022/04/21 17:21:20;;;;;;;6.00;4.00;;;;;;;17.21;42.30;99360.22;10231255;28;20707;-63
2022/04/21 17:26:21;;;;;;;4.57;3.63;;;;;;;17.10;43.28;99356.16;10230036;28;20053;-63
2022/04/21 17:31:26;;;;;;;4.90;4.05;;;;;;;16.96;42.94;99359.69;10227141;28;20544;-64
2022/04/21 17:36:28;;;;;;;3.88;3.58;;;;;;;16.81;43.22;99362.34;10228627;28;20051;-63
2022/04/21 17:41:30;;;;;;;4.97;3.92;;;;;;;16.73;44.13;99359.78;10226396;28;20052;-63
2022/04/21 17:46:31;;;;;;;7.57;3.90;;;;;;;16.76;44.31;99354.03;10230920;28;20055;-64
2022/04/21 17:51:33;;;;;;;4.63;3.38;;;;;;;16.77;44.20;99359.22;10234354;28;20074;-63
2022/04/21 17:56:34;;;;;;;4.70;3.22;;;;;;;16.70;43.74;99357.47;10239616;28;20134;-63
2022/04/21 18:01:36;;;;;;;3.50;3.13;;;;;;;16.63;44.26;99362.72;10236317;28;20639;-64
2022/04/21 18:06:38;;;;;;;4.72;2.60;;;;;;;16.52;45.03;99363.19;10229860;28;20521;-63
2022/04/21 18:11:39;;;;;;;5.38;2.55;;;;;;;16.29;45.42;99363.22;10228804;28;20055;-64
2022/04/21 18:16:41;;;;;;;3.30;2.70;;;;;;;16.11;45.55;99377.84;10226549;28;21387;-63
2022/04/21 18:21:43;;;;;;;5.93;3.00;;;;;;;15.88;45.57;99373.31;10228980;28;20145;-64
2022/04/21 18:26:44;;;;;;;3.05;2.45;;;;;;;15.79;46.71;99395.84;10230242;28;20062;-63
2022/04/21 18:31:46;;;;;;;2.75;2.55;;;;;;;15.59;47.00;99389.25;10231399;28;20059;-64
2022/04/21 18:36:47;;;;;;;4.15;2.40;;;;;;;15.42;46.53;99385.81;10229468;28;20054;-63
2022/04/21 18:41:50;;;;;;;3.63;2.50;;;;;;;15.31;47.79;99387.91;10228826;28;20069;-63
2022/04/21 18:46:51;;;;;;;4.55;3.10;;;;;;;15.25;47.87;99385.06;10230425;28;20211;-64
2022/04/21 18:51:53;;;;;;;2.75;2.40;;;;;;;15.09;47.99;99362.72;10238490;28;20062;-64
2022/04/21 18:56:56;;;;;;;3.60;2.83;;;;;;;15.07;48.62;99383.47;10241490;28;20143;-65
2022/04/21 19:01:57;;;;;;;6.88;2.67;;;;;;;15.01;48.95;99386.84;10249213;28;20533;-64
2022/04/21 19:06:58;;;;;;;4.50;3.00;;;;;;;14.78;49.14;99387.59;10245420;28;20055;-63
2022/04/21 19:12:02;;;;;;;4.40;2.85;;;;;;;14.64;49.46;99375.75;10242061;28;20078;-64
2022/04/21 19:17:04;;;;;;;4.47;3.55;;;;;;;14.62;50.22;99380.47;10231516;28;20050;-68
2022/04/21 19:22:10;;;;;;;3.35;3.05;;;;;;;14.61;49.62;99381.44;10235590;28;20121;-64
2022/04/21 19:27:19;;;;;;;5.53;3.10;;;;;;;14.52;50.39;99384.28;10241774;28;20055;-63
2022/04/21 19:32:22;;;;;;;4.43;3.40;;;;;;;14.35;50.62;99372.75;10238499;28;20055;-63
2022/04/21 19:37:24;;;;;;;4.53;3.35;;;;;;;14.24;50.87;99373.94;10238936;28;20057;-64
2022/04/21 19:42:25;;;;;;;4.03;3.40;;;;;;;14.19;51.13;99382.50;10236359;28;20058;-65
2022/04/21 19:47:30;;;;;;;4.40;3.50;;;;;;;14.09;51.87;99389.84;10235470;28;20055;-63
2022/04/21 19:52:31;;;;;;;4.03;3.63;;;;;;;13.91;51.90;99372.09;10238230;28;20110;-65
2022/04/21 19:57:33;;;;;;;3.92;3.55;;;;;;;13.96;52.33;99383.16;10238342;28;20134;-64
2022/04/21 20:02:50;;;;;;;4.85;4.03;;;;;;;13.94;52.48;99385.16;10234420;28;20051;-64
2022/04/21 20:13:12;;;;;;;4.68;4.28;;;;;;;13.85;52.75;99371.94;10236250;28;20075;-65
2022/04/21 20:18:17;;;;;;;6.88;4.22;;;;;;;13.77;52.93;99368.25;10230599;28;20049;-65
2022/04/21 20:23:18;;;;;;;6.50;4.53;;;;;;;13.75;52.81;99380.97;10234986;28;20603;-63
2022/04/21 20:28:20;;;;;;;5.72;4.63;;;;;;;13.64;53.23;99375.94;10243011;28;20494;-64
2022/04/21 20:33:21;;;;;;;5.70;5.07;;;;;;;13.67;52.25;99372.94;10237482;28;20474;-63
2022/04/21 20:38:23;;;;;;;4.47;4.07;;;;;;;13.53;53.22;99377.09;10233122;28;20059;-64
2022/04/21 20:43:24;;;;;;;5.68;4.65;;;;;;;13.39;53.96;99364.34;10236279;28;20426;-63
2022/04/21 20:48:28;;;;;;;5.25;4.75;;;;;;;13.37;53.79;99369.84;10233232;28;20054;-63
2022/04/21 20:53:29;;;;;;;4.78;4.07;;;;;;;13.33;52.82;99360.47;10240689;28;20059;-63
2022/04/21 20:58:31;;;;;;;6.30;5.70;;;;;;;13.23;53.95;99376.63;10236672;28;20061;-64
2022/04/21 21:03:32;;;;;;;5.70;5.20;;;;;;;13.25;54.31;99373.81;10234863;28;20461;-63
2022/04/21 21:08:33;;;;;;;7.10;4.82;;;;;;;13.13;54.02;99353.72;10236072;28;20047;-63
2022/04/21 21:13:34;;;;;;;5.57;5.07;;;;;;;13.16;54.66;99377.44;10237632;28;20063;-63
2022/04/21 21:18:36;;;;;;;6.00;5.38;;;;;;;13.09;54.74;99380.78;10231573;28;20078;-63
2022/04/21 21:23:37;;;;;;;5.93;4.97;;;;;;;12.91;55.15;99383.53;10235474;28;21366;-63
2022/04/21 21:28:38;;;;;;;5.50;5.00;;;;;;;12.85;54.97;99384.19;10249577;28;20139;-63
2022/04/21 21:33:40;;;;;;;5.80;5.22;;;;;;;12.88;55.28;99393.69;10230305;28;20061;-63
2022/04/21 21:38:41;;;;;;;6.82;5.38;;;;;;;12.79;54.86;99390.16;10234323;28;20375;-63
2022/04/21 21:43:42;;;;;;;6.80;5.38;;;;;;;12.71;54.58;99390.94;10232613;28;20373;-63
2022/04/21 21:54:04;;;;;;;7.43;6.13;;;;;;;12.63;55.52;99390.06;10235915;28;20130;-64
2022/04/21 21:59:06;;;;;;;6.43;5.63;;;;;;;12.68;54.82;99393.09;10247990;28;20130;-64
2022/04/21 22:04:07;;;;;;;7.05;6.35;;;;;;;12.46;56.03;99383.78;10233520;28;20137;-62
2022/04/21 22:09:09;;;;;;;7.28;6.57;;;;;;;12.47;56.16;99396.13;10234209;28;20341;-64
2022/04/21 22:14:12;;;;;;;6.35;5.63;;;;;;;12.39;56.38;99378.22;10237883;28;20137;-63
2022/04/21 22:19:13;;;;;;;8.00;7.05;;;;;;;12.19;56.93;99372.28;10233242;28;20734;-63
2022/04/21 22:24:14;;;;;;;6.97;6.20;;;;;;;12.30;56.75;99385.34;10240361;28;20072;-63
2022/04/21 22:29:16;;;;;;;6.95;6.25;;;;;;;12.25;56.77;99366.31;10240878;28;20169;-63
2022/04/21 22:34:37;;;;;;;9.02;7.57;;;;;;;12.12;57.71;99365.88;10242302;28;20053;-64
2022/04/21 22:39:39;;;;;;;9.55;7.65;;;;;;;12.16;57.21;99361.88;10242924;28;20051;-63
2022/04/21 22:44:40;;;;;;;8.38;7.57;;;;;;;12.12;57.95;99349.88;10237423;28;20126;-63
2022/04/21 22:49:42;;;;;;;9.20;8.30;;;;;;;12.13;57.17;99346.19;10256358;28;20755;-63
2022/04/21 22:54:45;;;;;;;7.60;6.85;;;;;;;12.00;57.78;99342.09;10242973;28;20050;-63
2022/04/21 22:59:46;;;;;;;10.05;8.25;;;;;;;11.86;58.84;99347.97;10239245;28;20063;-63
2022/04/21 23:04:48;;;;;;;10.32;8.95;;;;;;;11.83;59.36;99349.13;10239287;28;20153;-63
2022/04/21 23:15:09;;;;;;;12.45;10.20;;;;;;;11.73;58.87;99329.69;10241559;28;20051;-63
2022/04/21 23:20:11;;;;;;;12.48;10.73;;;;;;;11.76;59.79;99328.56;10240421;28;20757;-63
2022/04/21 23:25:14;;;;;;;12.30;10.23;;;;;;;11.94;59.79;99321.38;10255993;28;20058;-63
2022/04/21 23:30:15;;;;;;;13.10;10.85;;;;;;;11.97;59.14;99304.25;10248002;28;20047;-63
2022/04/21 23:35:17;;;;;;;14.90;11.82;;;;;;;11.93;59.29;99298.38;10241234;28;20047;-64
2022/04/21 23:40:18;;;;;;;13.65;11.25;;;;;;;11.93;59.24;99278.88;10237153;28;20618;-63
2022/04/21 23:45:20;;;;;;;15.55;11.40;;;;;;;11.97;59.36;99288.25;10244815;28;20141;-64
2022/04/21 23:50:21;;;;;;;13.82;11.05;;;;;;;11.82;59.63;99279.94;10242351;28;20518;-64
2022/04/21 23:55:23;;;;;;;12.38;11.18;;;;;;;11.72;59.64;99268.53;10240503;28;20938;-63
